sensor_id;sensor_type;location;lat;lon;timestamp;pressure;altitude;pressure_sealevel;temperature
14666;BMP280;7420;53.574;10.040;2023-06-10T00:01:07;54229.28;;;-136.87
14666;BMP280;7420;53.574;10.040;2023-06-10T00:03:32;54231.31;;;-136.87
14666;BMP280;7420;53.574;10.040;2023-06-10T00:05:58;54231.31;;;-136.87
14666;BMP280;7420;53.574;10.040;2023-06-10T00:08:23;54229.28;;;-136.87
14666;BMP280;7420;53.574;10.040;2023-06-10T00:10:49;54231.31;;;-136.87
14666;BMP280;7420;53.574;10.040;2023-06-10T00:13:15;54229.28;;;-136.87
14666;BMP280;7420;53.574;10.040;2023-06-10T00:15:41;54229.28;;;-136.87
14666;BMP280;7420;53.574;10.040;2023-06-10T00:18:07;54227.25;;;-136.87
14666;BMP280;7420;53.574;10.040;2023-06-10T00:20:35;54229.28;;;-136.87
14666;BMP280;7420;53.574;10.040;2023-06-10T00:23:03;54233.38;;;-136.87
14666;BMP280;7420;53.574;10.040;2023-06-10T00:25:28;54229.28;;;-136.87
14666;BMP280;7420;53.574;10.040;2023-06-10T00:27:55;54231.31;;;-136.87
14666;BMP280;7420;53.574;10.040;2023-06-10T00:30:23;54227.25;;;-136.87
14666;BMP280;7420;53.574;10.040;2023-06-10T00:32:48;54229.28;;;-136.87
14666;BMP280;7420;53.574;10.040;2023-06-10T00:35:14;54229.28;;;-136.87
14666;BMP280;7420;53.574;10.040;2023-06-10T00:40:05;54231.31;;;-136.87
14666;BMP280;7420;53.574;10.040;2023-06-10T00:42:31;54229.28;;;-136.87
14666;BMP280;7420;53.574;10.040;2023-06-10T00:44:57;54231.31;;;-136.87
14666;BMP280;7420;53.574;10.040;2023-06-10T00:47:22;54229.28;;;-136.87
14666;BMP280;7420;53.574;10.040;2023-06-10T00:49:49;54229.28;;;-136.87
14666;BMP280;7420;53.574;10.040;2023-06-10T00:52:16;54231.31;;;-136.87
14666;BMP280;7420;53.574;10.040;2023-06-10T00:54:43;54229.28;;;-136.87
14666;BMP280;7420;53.574;10.040;2023-06-10T00:57:09;54229.28;;;-136.87
14666;BMP280;7420;53.574;10.040;2023-06-10T00:59:35;54227.25;;;-136.87
14666;BMP280;7420;53.574;10.040;2023-06-10T01:02:00;54227.25;;;-136.87
14666;BMP280;7420;53.574;10.040;2023-06-10T01:04:27;54231.31;;;-136.87
14666;BMP280;7420;53.574;10.040;2023-06-10T01:12:44;54225.19;;;-136.87
14666;BMP280;7420;53.574;10.040;2023-06-10T01:15:15;54229.28;;;-136.87
14666;BMP280;7420;53.574;10.040;2023-06-10T01:17:57;54231.31;;;-136.87
14666;BMP280;7420;53.574;10.040;2023-06-10T01:20:24;54229.28;;;-136.87
14666;BMP280;7420;53.574;10.040;2023-06-10T01:22:49;54229.28;;;-136.87
14666;BMP280;7420;53.574;10.040;2023-06-10T01:25:16;54229.28;;;-136.87
14666;BMP280;7420;53.574;10.040;2023-06-10T01:27:45;54227.25;;;-136.87
14666;BMP280;7420;53.574;10.040;2023-06-10T01:30:15;54231.31;;;-136.87
14666;BMP280;7420;53.574;10.040;2023-06-10T01:32:46;54229.28;;;-136.87
14666;BMP280;7420;53.574;10.040;2023-06-10T01:35:13;54231.31;;;-136.87
14666;BMP280;7420;53.574;10.040;2023-06-10T01:37:40;54229.28;;;-136.87
14666;BMP280;7420;53.574;10.040;2023-06-10T01:40:06;54229.28;;;-136.87
14666;BMP280;7420;53.574;10.040;2023-06-10T01:42:32;54231.31;;;-136.87
14666;BMP280;7420;53.574;10.040;2023-06-10T01:44:58;54229.28;;;-136.87
14666;BMP280;7420;53.574;10.040;2023-06-10T01:47:24;54229.28;;;-136.87
14666;BMP280;7420;53.574;10.040;2023-06-10T01:49:52;54229.28;;;-136.87
14666;BMP280;7420;53.574;10.040;2023-06-10T01:52:17;54229.28;;;-136.87
14666;BMP280;7420;53.574;10.040;2023-06-10T01:54:43;54227.25;;;-136.87
14666;BMP280;7420;53.574;10.040;2023-06-10T01:57:08;54231.31;;;-136.87
14666;BMP280;7420;53.574;10.040;2023-06-10T01:59:33;54229.28;;;-136.87
14666;BMP280;7420;53.574;10.040;2023-06-10T02:01:59;54229.28;;;-136.87
14666;BMP280;7420;53.574;10.040;2023-06-10T02:04:24;54229.28;;;-136.87
14666;BMP280;7420;53.574;10.040;2023-06-10T02:06:50;54227.25;;;-136.87
14666;BMP280;7420;53.574;10.040;2023-06-10T02:09:15;54229.28;;;-136.87
14666;BMP280;7420;53.574;10.040;2023-06-10T02:11:41;54229.28;;;-136.87
14666;BMP280;7420;53.574;10.040;2023-06-10T02:14:06;54229.28;;;-136.87
14666;BMP280;7420;53.574;10.040;2023-06-10T02:16:31;54229.28;;;-136.87
14666;BMP280;7420;53.574;10.040;2023-06-10T02:18:57;54229.28;;;-136.87
14666;BMP280;7420;53.574;10.040;2023-06-10T02:21:23;54229.28;;;-136.87
14666;BMP280;7420;53.574;10.040;2023-06-10T02:23:48;54231.31;;;-136.87
14666;BMP280;7420;53.574;10.040;2023-06-10T02:26:13;54229.28;;;-136.87
14666;BMP280;7420;53.574;10.040;2023-06-10T02:28:42;54229.28;;;-136.87
14666;BMP280;7420;53.574;10.040;2023-06-10T02:31:07;54231.31;;;-136.87
14666;BMP280;7420;53.574;10.040;2023-06-10T02:33:33;54229.28;;;-136.87
14666;BMP280;7420;53.574;10.040;2023-06-10T02:35:58;54229.28;;;-136.87
14666;BMP280;7420;53.574;10.040;2023-06-10T02:38:24;54231.31;;;-136.87
14666;BMP280;7420;53.574;10.040;2023-06-10T02:40:49;54229.28;;;-136.87
14666;BMP280;7420;53.574;10.040;2023-06-10T02:43:15;54229.28;;;-136.87
14666;BMP280;7420;53.574;10.040;2023-06-10T02:45:40;54229.28;;;-136.87
14666;BMP280;7420;53.574;10.040;2023-06-10T02:48:05;54231.31;;;-136.87
14666;BMP280;7420;53.574;10.040;2023-06-10T02:50:31;54229.28;;;-136.87
14666;BMP280;7420;53.574;10.040;2023-06-10T02:52:56;54229.28;;;-136.87
14666;BMP280;7420;53.574;10.040;2023-06-10T02:55:22;54229.28;;;-136.87
14666;BMP280;7420;53.574;10.040;2023-06-10T02:57:51;54229.28;;;-136.87
14666;BMP280;7420;53.574;10.040;2023-06-10T03:00:17;54227.25;;;-136.87
14666;BMP280;7420;53.574;10.040;2023-06-10T03:05:30;54229.28;;;-136.87
14666;BMP280;7420;53.574;10.040;2023-06-10T03:07:56;54229.28;;;-136.87
14666;BMP280;7420;53.574;10.040;2023-06-10T03:10:21;54229.28;;;-136.87
14666;BMP280;7420;53.574;10.040;2023-06-10T03:12:47;54227.25;;;-136.87
14666;BMP280;7420;53.574;10.040;2023-06-10T03:15:12;54229.28;;;-136.87
14666;BMP280;7420;53.574;10.040;2023-06-10T03:17:38;54227.25;;;-136.87
14666;BMP280;7420;53.574;10.040;2023-06-10T03:20:03;54229.28;;;-136.87
14666;BMP280;7420;53.574;10.040;2023-06-10T03:22:33;54229.28;;;-136.87
14666;BMP280;7420;53.574;10.040;2023-06-10T03:24:58;54227.25;;;-136.87
14666;BMP280;7420;53.574;10.040;2023-06-10T03:27:24;54229.28;;;-136.87
14666;BMP280;7420;53.574;10.040;2023-06-10T03:29:50;54227.25;;;-136.87
14666;BMP280;7420;53.574;10.040;2023-06-10T03:32:15;54225.19;;;-136.87
14666;BMP280;7420;53.574;10.040;2023-06-10T03:34:41;54229.28;;;-136.87
14666;BMP280;7420;53.574;10.040;2023-06-10T03:37:06;54227.25;;;-136.87
14666;BMP280;7420;53.574;10.040;2023-06-10T03:39:32;54225.19;;;-136.87
14666;BMP280;7420;53.574;10.040;2023-06-10T03:41:58;54225.19;;;-136.87
14666;BMP280;7420;53.574;10.040;2023-06-10T03:44:24;54227.25;;;-136.87
14666;BMP280;7420;53.574;10.040;2023-06-10T03:46:51;54227.25;;;-136.87
14666;BMP280;7420;53.574;10.040;2023-06-10T03:49:17;54229.28;;;-136.87
14666;BMP280;7420;53.574;10.040;2023-06-10T03:51:42;54229.28;;;-136.87
14666;BMP280;7420;53.574;10.040;2023-06-10T03:54:08;54229.28;;;-136.87
14666;BMP280;7420;53.574;10.040;2023-06-10T03:56:33;54227.25;;;-136.87
14666;BMP280;7420;53.574;10.040;2023-06-10T03:58:58;54227.25;;;-136.87
14666;BMP280;7420;53.574;10.040;2023-06-10T04:01:24;54227.25;;;-136.87
14666;BMP280;7420;53.574;10.040;2023-06-10T04:03:49;54229.28;;;-136.87
14666;BMP280;7420;53.574;10.040;2023-06-10T04:06:16;54227.25;;;-136.87
14666;BMP280;7420;53.574;10.040;2023-06-10T04:08:42;54229.28;;;-136.87
14666;BMP280;7420;53.574;10.040;2023-06-10T04:11:08;54225.19;;;-136.87
14666;BMP280;7420;53.574;10.040;2023-06-10T04:15:59;54227.25;;;-136.87
14666;BMP280;7420;53.574;10.040;2023-06-10T04:18:26;54227.25;;;-136.87
14666;BMP280;7420;53.574;10.040;2023-06-10T04:20:52;54225.19;;;-136.87
14666;BMP280;7420;53.574;10.040;2023-06-10T04:23:17;54229.28;;;-136.87
14666;BMP280;7420;53.574;10.040;2023-06-10T04:25:43;54231.31;;;-136.87
14666;BMP280;7420;53.574;10.040;2023-06-10T04:28:08;54227.25;;;-136.87
14666;BMP280;7420;53.574;10.040;2023-06-10T04:30:34;54229.28;;;-136.87
14666;BMP280;7420;53.574;10.040;2023-06-10T04:32:59;54229.28;;;-136.87
14666;BMP280;7420;53.574;10.040;2023-06-10T04:35:24;54229.28;;;-136.87
14666;BMP280;7420;53.574;10.040;2023-06-10T04:37:53;54229.28;;;-136.87
14666;BMP280;7420;53.574;10.040;2023-06-10T04:40:18;54229.28;;;-136.87
14666;BMP280;7420;53.574;10.040;2023-06-10T04:42:44;54225.19;;;-136.87
14666;BMP280;7420;53.574;10.040;2023-06-10T04:45:09;54223.16;;;-136.87
14666;BMP280;7420;53.574;10.040;2023-06-10T04:47:35;54227.25;;;-136.87
14666;BMP280;7420;53.574;10.040;2023-06-10T04:50:01;54229.28;;;-136.87
14666;BMP280;7420;53.574;10.040;2023-06-10T04:52:30;54229.28;;;-136.87
14666;BMP280;7420;53.574;10.040;2023-06-10T04:54:58;54225.19;;;-136.87
14666;BMP280;7420;53.574;10.040;2023-06-10T04:57:23;54227.25;;;-136.87
14666;BMP280;7420;53.574;10.040;2023-06-10T04:59:48;54229.28;;;-136.87
14666;BMP280;7420;53.574;10.040;2023-06-10T05:02:14;54229.28;;;-136.87
14666;BMP280;7420;53.574;10.040;2023-06-10T05:04:39;54227.25;;;-136.87
14666;BMP280;7420;53.574;10.040;2023-06-10T05:07:05;54227.25;;;-136.87
14666;BMP280;7420;53.574;10.040;2023-06-10T05:09:30;54227.25;;;-136.87
14666;BMP280;7420;53.574;10.040;2023-06-10T05:11:56;54227.25;;;-136.87
14666;BMP280;7420;53.574;10.040;2023-06-10T05:14:24;54225.19;;;-136.87
14666;BMP280;7420;53.574;10.040;2023-06-10T05:16:49;54229.28;;;-136.87
14666;BMP280;7420;53.574;10.040;2023-06-10T05:19:15;54229.28;;;-136.87
14666;BMP280;7420;53.574;10.040;2023-06-10T05:21:44;54227.25;;;-136.87
14666;BMP280;7420;53.574;10.040;2023-06-10T05:24:09;54225.19;;;-136.87
14666;BMP280;7420;53.574;10.040;2023-06-10T05:26:35;54229.28;;;-136.87
14666;BMP280;7420;53.574;10.040;2023-06-10T05:29:03;54229.28;;;-136.87
14666;BMP280;7420;53.574;10.040;2023-06-10T05:31:29;54227.25;;;-136.87
14666;BMP280;7420;53.574;10.040;2023-06-10T05:33:54;54227.25;;;-136.87
14666;BMP280;7420;53.574;10.040;2023-06-10T05:36:20;54227.25;;;-136.87
14666;BMP280;7420;53.574;10.040;2023-06-10T05:38:46;54223.16;;;-136.87
14666;BMP280;7420;53.574;10.040;2023-06-10T05:41:11;54225.19;;;-136.87
14666;BMP280;7420;53.574;10.040;2023-06-10T05:43:36;54229.28;;;-136.87
14666;BMP280;7420;53.574;10.040;2023-06-10T05:46:02;54227.25;;;-136.87
14666;BMP280;7420;53.574;10.040;2023-06-10T05:48:27;54229.28;;;-136.87
14666;BMP280;7420;53.574;10.040;2023-06-10T05:50:52;54227.25;;;-136.87
14666;BMP280;7420;53.574;10.040;2023-06-10T05:53:18;54225.19;;;-136.87
14666;BMP280;7420;53.574;10.040;2023-06-10T05:55:44;54227.25;;;-136.87
14666;BMP280;7420;53.574;10.040;2023-06-10T05:58:10;54229.28;;;-136.87
14666;BMP280;7420;53.574;10.040;2023-06-10T06:00:38;54225.19;;;-136.87
14666;BMP280;7420;53.574;10.040;2023-06-10T06:03:03;54225.19;;;-136.87
14666;BMP280;7420;53.574;10.040;2023-06-10T06:05:28;54223.16;;;-136.87
14666;BMP280;7420;53.574;10.040;2023-06-10T06:08:00;54229.28;;;-136.87
14666;BMP280;7420;53.574;10.040;2023-06-10T06:10:26;54225.19;;;-136.87
14666;BMP280;7420;53.574;10.040;2023-06-10T06:12:51;54225.19;;;-136.87
14666;BMP280;7420;53.574;10.040;2023-06-10T06:15:16;54227.25;;;-136.87
14666;BMP280;7420;53.574;10.040;2023-06-10T06:17:42;54227.25;;;-136.87
14666;BMP280;7420;53.574;10.040;2023-06-10T06:20:07;54229.28;;;-136.87
14666;BMP280;7420;53.574;10.040;2023-06-10T06:22:33;54225.19;;;-136.87
14666;BMP280;7420;53.574;10.040;2023-06-10T06:24:58;54225.19;;;-136.87
14666;BMP280;7420;53.574;10.040;2023-06-10T06:27:23;54225.19;;;-136.87
14666;BMP280;7420;53.574;10.040;2023-06-10T06:29:49;54225.19;;;-136.87
14666;BMP280;7420;53.574;10.040;2023-06-10T06:32:15;54225.19;;;-136.87
14666;BMP280;7420;53.574;10.040;2023-06-10T06:34:41;54227.25;;;-136.87
14666;BMP280;7420;53.574;10.040;2023-06-10T06:37:06;54227.25;;;-136.87
14666;BMP280;7420;53.574;10.040;2023-06-10T06:39:31;54223.16;;;-136.87
14666;BMP280;7420;53.574;10.040;2023-06-10T06:41:57;54225.19;;;-136.87
14666;BMP280;7420;53.574;10.040;2023-06-10T06:44:22;54223.16;;;-136.87
14666;BMP280;7420;53.574;10.040;2023-06-10T06:46:47;54229.28;;;-136.87
14666;BMP280;7420;53.574;10.040;2023-06-10T06:49:14;54227.25;;;-136.87
14666;BMP280;7420;53.574;10.040;2023-06-10T06:51:39;54225.19;;;-136.87
14666;BMP280;7420;53.574;10.040;2023-06-10T06:54:04;54227.25;;;-136.87
14666;BMP280;7420;53.574;10.040;2023-06-10T06:56:31;54225.19;;;-136.87
14666;BMP280;7420;53.574;10.040;2023-06-10T06:58:56;54227.25;;;-136.87
14666;BMP280;7420;53.574;10.040;2023-06-10T07:01:22;54227.25;;;-136.87
14666;BMP280;7420;53.574;10.040;2023-06-10T07:03:47;54227.25;;;-136.87
14666;BMP280;7420;53.574;10.040;2023-06-10T07:06:12;54227.25;;;-136.87
14666;BMP280;7420;53.574;10.040;2023-06-10T07:08:38;54225.19;;;-136.87
14666;BMP280;7420;53.574;10.040;2023-06-10T07:11:03;54225.19;;;-136.87
14666;BMP280;7420;53.574;10.040;2023-06-10T07:13:28;54225.19;;;-136.87
14666;BMP280;7420;53.574;10.040;2023-06-10T07:15:54;54225.19;;;-136.87
14666;BMP280;7420;53.574;10.040;2023-06-10T07:18:19;54225.19;;;-136.87
14666;BMP280;7420;53.574;10.040;2023-06-10T07:20:45;54229.28;;;-136.87
14666;BMP280;7420;53.574;10.040;2023-06-10T07:23:10;54225.19;;;-136.87
14666;BMP280;7420;53.574;10.040;2023-06-10T07:25:35;54227.25;;;-136.87
14666;BMP280;7420;53.574;10.040;2023-06-10T07:28:01;54225.19;;;-136.87
14666;BMP280;7420;53.574;10.040;2023-06-10T07:30:28;54227.25;;;-136.87
14666;BMP280;7420;53.574;10.040;2023-06-10T07:32:53;54227.25;;;-136.87
14666;BMP280;7420;53.574;10.040;2023-06-10T07:35:18;54225.19;;;-136.87
14666;BMP280;7420;53.574;10.040;2023-06-10T07:37:44;54225.19;;;-136.87
14666;BMP280;7420;53.574;10.040;2023-06-10T07:40:09;54225.19;;;-136.87
14666;BMP280;7420;53.574;10.040;2023-06-10T07:42:35;54229.28;;;-136.87
14666;BMP280;7420;53.574;10.040;2023-06-10T07:45:02;54225.19;;;-136.87
14666;BMP280;7420;53.574;10.040;2023-06-10T07:47:27;54229.28;;;-136.87
14666;BMP280;7420;53.574;10.040;2023-06-10T07:49:53;54225.19;;;-136.87
14666;BMP280;7420;53.574;10.040;2023-06-10T07:52:18;54225.19;;;-136.87
14666;BMP280;7420;53.574;10.040;2023-06-10T07:54:44;54223.16;;;-136.87
14666;BMP280;7420;53.574;10.040;2023-06-10T07:57:09;54227.25;;;-136.87
14666;BMP280;7420;53.574;10.040;2023-06-10T07:59:35;54225.19;;;-136.87
14666;BMP280;7420;53.574;10.040;2023-06-10T08:02:00;54227.25;;;-136.87
14666;BMP280;7420;53.574;10.040;2023-06-10T08:04:25;54227.25;;;-136.87
14666;BMP280;7420;53.574;10.040;2023-06-10T08:06:51;54227.25;;;-136.87
14666;BMP280;7420;53.574;10.040;2023-06-10T08:09:16;54227.25;;;-136.87
14666;BMP280;7420;53.574;10.040;2023-06-10T08:11:43;54223.16;;;-136.87
14666;BMP280;7420;53.574;10.040;2023-06-10T08:14:09;54225.19;;;-136.87
14666;BMP280;7420;53.574;10.040;2023-06-10T08:16:34;54225.19;;;-136.87
14666;BMP280;7420;53.574;10.040;2023-06-10T08:18:59;54225.19;;;-136.87
14666;BMP280;7420;53.574;10.040;2023-06-10T08:21:25;54227.25;;;-136.87
14666;BMP280;7420;53.574;10.040;2023-06-10T08:23:53;54227.25;;;-136.87
14666;BMP280;7420;53.574;10.040;2023-06-10T08:26:19;54227.25;;;-136.87
14666;BMP280;7420;53.574;10.040;2023-06-10T08:28:44;54225.19;;;-136.87
14666;BMP280;7420;53.574;10.040;2023-06-10T08:31:10;54227.25;;;-136.87
14666;BMP280;7420;53.574;10.040;2023-06-10T08:33:35;54227.25;;;-136.87
14666;BMP280;7420;53.574;10.040;2023-06-10T08:36:01;54229.28;;;-136.87
14666;BMP280;7420;53.574;10.040;2023-06-10T08:38:26;54229.28;;;-136.87
14666;BMP280;7420;53.574;10.040;2023-06-10T08:40:56;54229.28;;;-136.87
14666;BMP280;7420;53.574;10.040;2023-06-10T08:43:34;54231.31;;;-136.87
14666;BMP280;7420;53.574;10.040;2023-06-10T08:46:04;54235.41;;;-136.87
14666;BMP280;7420;53.574;10.040;2023-06-10T08:48:30;54231.31;;;-136.87
14666;BMP280;7420;53.574;10.040;2023-06-10T08:50:57;54231.31;;;-136.87
14666;BMP280;7420;53.574;10.040;2023-06-10T08:53:23;54233.38;;;-136.87
14666;BMP280;7420;53.574;10.040;2023-06-10T08:55:50;54231.31;;;-136.87
14666;BMP280;7420;53.574;10.040;2023-06-10T08:58:19;54235.41;;;-136.87
14666;BMP280;7420;53.574;10.040;2023-06-10T09:00:45;54239.50;;;-136.87
14666;BMP280;7420;53.574;10.040;2023-06-10T09:03:10;54241.53;;;-136.87
14666;BMP280;7420;53.574;10.040;2023-06-10T09:05:36;54239.50;;;-136.87
14666;BMP280;7420;53.574;10.040;2023-06-10T09:08:03;54241.53;;;-136.87
14666;BMP280;7420;53.574;10.040;2023-06-10T09:10:29;54243.59;;;-136.87
14666;BMP280;7420;53.574;10.040;2023-06-10T09:12:54;54239.50;;;-136.87
14666;BMP280;7420;53.574;10.040;2023-06-10T09:15:20;54243.59;;;-136.87
14666;BMP280;7420;53.574;10.040;2023-06-10T09:17:45;54241.53;;;-136.87
14666;BMP280;7420;53.574;10.040;2023-06-10T09:20:11;54245.63;;;-136.87
14666;BMP280;7420;53.574;10.040;2023-06-10T09:22:36;54241.53;;;-136.87
14666;BMP280;7420;53.574;10.040;2023-06-10T09:25:12;54245.63;;;-136.87
14666;BMP280;7420;53.574;10.040;2023-06-10T09:27:48;54243.59;;;-136.87
14666;BMP280;7420;53.574;10.040;2023-06-10T09:32:51;54241.53;;;-136.87
14666;BMP280;7420;53.574;10.040;2023-06-10T09:35:17;54245.63;;;-136.87
14666;BMP280;7420;53.574;10.040;2023-06-10T09:37:44;54239.50;;;-136.87
14666;BMP280;7420;53.574;10.040;2023-06-10T09:40:09;54241.53;;;-136.87
14666;BMP280;7420;53.574;10.040;2023-06-10T09:42:38;54243.59;;;-136.87
14666;BMP280;7420;53.574;10.040;2023-06-10T09:45:04;54249.72;;;-136.87
14666;BMP280;7420;53.574;10.040;2023-06-10T09:47:30;54245.63;;;-136.87
14666;BMP280;7420;53.574;10.040;2023-06-10T09:49:55;54241.53;;;-136.87
14666;BMP280;7420;53.574;10.040;2023-06-10T09:52:24;54247.66;;;-136.87
14666;BMP280;7420;53.574;10.040;2023-06-10T09:54:51;54245.63;;;-136.87
14666;BMP280;7420;53.574;10.040;2023-06-10T09:57:17;54237.44;;;-136.87
14666;BMP280;7420;53.574;10.040;2023-06-10T09:59:43;54239.50;;;-136.87
14666;BMP280;7420;53.574;10.040;2023-06-10T10:02:17;54237.44;;;-136.87
14666;BMP280;7420;53.574;10.040;2023-06-10T10:04:43;54239.50;;;-136.87
14666;BMP280;7420;53.574;10.040;2023-06-10T10:07:10;54237.44;;;-136.87
14666;BMP280;7420;53.574;10.040;2023-06-10T10:09:38;54239.50;;;-136.87
14666;BMP280;7420;53.574;10.040;2023-06-10T10:12:11;54241.53;;;-136.87
14666;BMP280;7420;53.574;10.040;2023-06-10T10:14:38;54239.50;;;-136.87
14666;BMP280;7420;53.574;10.040;2023-06-10T10:17:10;54237.44;;;-136.87
14666;BMP280;7420;53.574;10.040;2023-06-10T10:19:42;54233.38;;;-136.87
14666;BMP280;7420;53.574;10.040;2023-06-10T10:22:12;54237.44;;;-136.87
14666;BMP280;7420;53.574;10.040;2023-06-10T10:24:49;54233.38;;;-136.87
14666;BMP280;7420;53.574;10.040;2023-06-10T10:27:18;54231.31;;;-136.87
14666;BMP280;7420;53.574;10.040;2023-06-10T10:29:47;54233.38;;;-136.87
14666;BMP280;7420;53.574;10.040;2023-06-10T10:32:16;54229.28;;;-136.87
14666;BMP280;7420;53.574;10.040;2023-06-10T10:35:14;54227.25;;;-136.87
14666;BMP280;7420;53.574;10.040;2023-06-10T10:37:41;54231.31;;;-136.87
14666;BMP280;7420;53.574;10.040;2023-06-10T10:40:07;54235.41;;;-136.87
14666;BMP280;7420;53.574;10.040;2023-06-10T10:42:37;54231.31;;;-136.87
14666;BMP280;7420;53.574;10.040;2023-06-10T10:45:04;54229.28;;;-136.87
14666;BMP280;7420;53.574;10.040;2023-06-10T10:47:30;54229.28;;;-136.87
14666;BMP280;7420;53.574;10.040;2023-06-10T10:49:56;54227.25;;;-136.87
14666;BMP280;7420;53.574;10.040;2023-06-10T10:52:24;54223.16;;;-136.87
14666;BMP280;7420;53.574;10.040;2023-06-10T10:54:53;54223.16;;;-136.87
14666;BMP280;7420;53.574;10.040;2023-06-10T10:57:19;54223.16;;;-136.87
14666;BMP280;7420;53.574;10.040;2023-06-10T11:02:43;54225.19;;;-136.87
14666;BMP280;7420;53.574;10.040;2023-06-10T11:05:10;54225.19;;;-136.87
14666;BMP280;7420;53.574;10.040;2023-06-10T11:07:37;54225.19;;;-136.87
14666;BMP280;7420;53.574;10.040;2023-06-10T11:10:06;54223.16;;;-136.87
14666;BMP280;7420;53.574;10.040;2023-06-10T11:12:51;54221.13;;;-136.87
14666;BMP280;7420;53.574;10.040;2023-06-10T11:15:23;54225.19;;;-136.87
14666;BMP280;7420;53.574;10.040;2023-06-10T11:26:46;54221.13;;;-136.87
14666;BMP280;7420;53.574;10.040;2023-06-10T11:29:06;54212.94;;;-136.87
14666;BMP280;7420;53.574;10.040;2023-06-10T11:31:44;54217.03;;;-136.87
14666;BMP280;7420;53.574;10.040;2023-06-10T11:34:11;54217.03;;;-136.87
14666;BMP280;7420;53.574;10.040;2023-06-10T11:36:39;54212.94;;;-136.87
14666;BMP280;7420;53.574;10.040;2023-06-10T11:39:09;54212.94;;;-136.87
14666;BMP280;7420;53.574;10.040;2023-06-10T11:41:35;54217.03;;;-136.87
14666;BMP280;7420;53.574;10.040;2023-06-10T11:44:04;54212.94;;;-136.87
14666;BMP280;7420;53.574;10.040;2023-06-10T11:46:32;54208.84;;;-136.87
14666;BMP280;7420;53.574;10.040;2023-06-10T11:49:01;54214.97;;;-136.87
14666;BMP280;7420;53.574;10.040;2023-06-10T11:51:35;54214.97;;;-136.87
14666;BMP280;7420;53.574;10.040;2023-06-10T11:54:01;54212.94;;;-136.87
14666;BMP280;7420;53.574;10.040;2023-06-10T11:56:28;54208.84;;;-136.87
14666;BMP280;7420;53.574;10.040;2023-06-10T12:01:26;54208.84;;;-136.87
14666;BMP280;7420;53.574;10.040;2023-06-10T12:06:42;54208.84;;;-136.87
14666;BMP280;7420;53.574;10.040;2023-06-10T12:12:01;54208.84;;;-136.87
14666;BMP280;7420;53.574;10.040;2023-06-10T12:14:52;54208.84;;;-136.87
14666;BMP280;7420;53.574;10.040;2023-06-10T12:17:42;54198.66;;;-136.87
14666;BMP280;7420;53.574;10.040;2023-06-10T12:20:24;54200.69;;;-136.87
14666;BMP280;7420;53.574;10.040;2023-06-10T12:22:50;54196.59;;;-136.87
14666;BMP280;7420;53.574;10.040;2023-06-10T12:25:15;54200.69;;;-136.87
14666;BMP280;7420;53.574;10.040;2023-06-10T12:27:50;54204.78;;;-136.87
14666;BMP280;7420;53.574;10.040;2023-06-10T12:30:19;54196.59;;;-136.87
14666;BMP280;7420;53.574;10.040;2023-06-10T12:32:46;54200.69;;;-136.87
14666;BMP280;7420;53.574;10.040;2023-06-10T12:35:13;54192.53;;;-136.87
14666;BMP280;7420;53.574;10.040;2023-06-10T12:37:40;54196.59;;;-136.87
14666;BMP280;7420;53.574;10.040;2023-06-10T12:40:06;54196.59;;;-136.87
14666;BMP280;7420;53.574;10.040;2023-06-10T12:42:33;54192.53;;;-136.87
14666;BMP280;7420;53.574;10.040;2023-06-10T12:45:01;54194.56;;;-136.87
14666;BMP280;7420;53.574;10.040;2023-06-10T12:47:34;54192.53;;;-136.87
14666;BMP280;7420;53.574;10.040;2023-06-10T12:50:05;54196.59;;;-136.87
14666;BMP280;7420;53.574;10.040;2023-06-10T12:52:31;54188.44;;;-136.87
14666;BMP280;7420;53.574;10.040;2023-06-10T12:54:57;54188.44;;;-136.87
14666;BMP280;7420;53.574;10.040;2023-06-10T12:57:24;54192.53;;;-136.87
14666;BMP280;7420;53.574;10.040;2023-06-10T12:59:49;54192.53;;;-136.87
14666;BMP280;7420;53.574;10.040;2023-06-10T13:02:20;54186.38;;;-136.87
14666;BMP280;7420;53.574;10.040;2023-06-10T13:04:46;54188.44;;;-136.87
14666;BMP280;7420;53.574;10.040;2023-06-10T13:07:12;54190.47;;;-136.87
14666;BMP280;7420;53.574;10.040;2023-06-10T13:09:37;54190.47;;;-136.87
14666;BMP280;7420;53.574;10.040;2023-06-10T13:12:03;54186.38;;;-136.87
14666;BMP280;7420;53.574;10.040;2023-06-10T13:14:28;54188.44;;;-136.87
14666;BMP280;7420;53.574;10.040;2023-06-10T13:16:54;54188.44;;;-136.87
14666;BMP280;7420;53.574;10.040;2023-06-10T13:19:20;54186.38;;;-136.87
14666;BMP280;7420;53.574;10.040;2023-06-10T13:26:37;54178.22;;;-136.87
14666;BMP280;7420;53.574;10.040;2023-06-10T13:29:02;54196.59;;;-136.87
14666;BMP280;7420;53.574;10.040;2023-06-10T13:31:28;54192.53;;;-136.87
14666;BMP280;7420;53.574;10.040;2023-06-10T13:33:53;54186.38;;;-136.87
14666;BMP280;7420;53.574;10.040;2023-06-10T13:38:44;54172.09;;;-136.87
14666;BMP280;7420;53.574;10.040;2023-06-10T13:43:35;54178.22;;;-136.87
14666;BMP280;7420;53.574;10.040;2023-06-10T13:46:01;54182.31;;;-136.87
14666;BMP280;7420;53.574;10.040;2023-06-10T13:50:51;54188.44;;;-136.87
14666;BMP280;7420;53.574;10.040;2023-06-10T13:58:07;54174.13;;;-136.87
14666;BMP280;7420;53.574;10.040;2023-06-10T14:00:32;54188.44;;;-136.87
14666;BMP280;7420;53.574;10.040;2023-06-10T14:05:23;54204.78;;;-136.87
14666;BMP280;7420;53.574;10.040;2023-06-10T14:07:49;54202.72;;;-136.87
14666;BMP280;7420;53.574;10.040;2023-06-10T14:10:14;54200.69;;;-136.87
14666;BMP280;7420;53.574;10.040;2023-06-10T14:12:39;54204.78;;;-136.87
14666;BMP280;7420;53.574;10.040;2023-06-10T14:15:05;54204.78;;;-136.87
14666;BMP280;7420;53.574;10.040;2023-06-10T14:17:31;54206.81;;;-136.87
14666;BMP280;7420;53.574;10.040;2023-06-10T14:19:56;54200.69;;;-136.87
14666;BMP280;7420;53.574;10.040;2023-06-10T14:22:21;54204.78;;;-136.87
14666;BMP280;7420;53.574;10.040;2023-06-10T14:24:46;54210.91;;;-136.87
14666;BMP280;7420;53.574;10.040;2023-06-10T14:27:12;54204.78;;;-136.87
14666;BMP280;7420;53.574;10.040;2023-06-10T14:29:38;54204.78;;;-136.87
14666;BMP280;7420;53.574;10.040;2023-06-10T14:32:03;54200.69;;;-136.87
14666;BMP280;7420;53.574;10.040;2023-06-10T14:34:29;54196.59;;;-136.87
14666;BMP280;7420;53.574;10.040;2023-06-10T14:36:59;54194.56;;;-136.87